Time;durP1;ratioP1;P1;durP2;ratioP2;P2;SDS_P1;SDS_P2;PMS_P1;PMS_P2;Temp;Humidity;BMP_temperature;BMP_pressure;BME280_temperature;BME280_humidity;BME280_pressure;Samples;Min_cycle;Max_cycle;Signal;HPM_P1;HPM_P2
2022/06/26 00:01:34;;;;;;;2.10;1.90;;;18.60;99.90;;;;;;5071875;28;20628;-65
2022/06/26 00:04:01;;;;;;;2.72;1.95;;;18.50;99.90;;;;;;5071670;28;20221;-65
2022/06/26 00:06:28;;;;;;;2.03;1.80;;;18.40;99.90;;;;;;5071421;28;20233;-66
2022/06/26 00:08:55;;;;;;;3.15;2.00;;;18.30;99.90;;;;;;5071868;28;20208;-66
2022/06/26 00:11:23;;;;;;;2.38;1.60;;;18.30;99.90;;;;;;5071830;28;20215;-66
2022/06/26 00:13:50;;;;;;;2.25;1.60;;;18.30;99.90;;;;;;5071639;28;20338;-65
2022/06/26 00:16:17;;;;;;;2.45;1.52;;;18.30;99.90;;;;;;5071249;28;20236;-66
2022/06/26 00:18:43;;;;;;;4.13;1.70;;;18.40;99.90;;;;;;5071549;28;20212;-66
2022/06/26 00:21:10;;;;;;;3.70;1.90;;;18.40;99.90;;;;;;5071855;28;20201;-65
2022/06/26 00:23:38;;;;;;;2.22;1.50;;;18.40;99.90;;;;;;5071757;28;20220;-66
2022/06/26 00:26:05;;;;;;;1.73;1.60;;;18.40;99.90;;;;;;5071619;28;20224;-66
2022/06/26 00:28:33;;;;;;;2.67;1.73;;;18.40;99.90;;;;;;5071612;28;20304;-66
2022/06/26 00:31:01;;;;;;;3.28;1.85;;;18.40;99.90;;;;;;5071541;28;20307;-66
2022/06/26 00:33:27;;;;;;;2.88;1.42;;;18.40;99.90;;;;;;5071429;28;20270;-66
2022/06/26 00:35:54;;;;;;;3.08;1.58;;;18.40;99.90;;;;;;5071401;28;20236;-66
2022/06/26 00:38:21;;;;;;;3.42;1.70;;;18.50;99.90;;;;;;5071620;28;20212;-65
2022/06/26 00:40:48;;;;;;;1.73;1.63;;;18.60;99.90;;;;;;5071728;28;20225;-65
2022/06/26 00:43:14;;;;;;;1.92;1.58;;;18.80;99.90;;;;;;5071409;28;20254;-65
2022/06/26 00:45:42;;;;;;;3.03;1.55;;;18.90;99.90;;;;;;5070988;28;20229;-66
2022/06/26 00:48:09;;;;;;;2.47;1.40;;;19.10;99.90;;;;;;5071384;28;20232;-65
2022/06/26 00:50:36;;;;;;;4.95;1.95;;;19.10;99.90;;;;;;5071457;28;20216;-66
2022/06/26 00:53:03;;;;;;;3.78;1.70;;;19.20;99.90;;;;;;5071432;28;20209;-66
2022/06/26 00:55:30;;;;;;;12.38;6.75;;;19.30;99.90;;;;;;5071646;28;20224;-65
2022/06/26 00:57:56;;;;;;;11.93;6.45;;;19.40;99.90;;;;;;5071169;28;20270;-66
2022/06/26 01:00:23;;;;;;;9.25;5.60;;;19.40;99.90;;;;;;5071028;28;20205;-65
2022/06/26 01:02:51;;;;;;;12.35;5.63;;;19.40;99.90;;;;;;5071024;28;20738;-66
2022/06/26 01:05:18;;;;;;;10.38;6.03;;;19.40;99.90;;;;;;5071188;28;20232;-65
2022/06/26 01:07:45;;;;;;;8.48;4.22;;;19.40;99.90;;;;;;5071179;28;20213;-66
2022/06/26 01:10:12;;;;;;;4.88;2.97;;;19.50;99.90;;;;;;5071327;28;20209;-66
2022/06/26 01:12:39;;;;;;;3.60;2.85;;;19.30;99.90;;;;;;5074733;28;20208;-65
2022/06/26 01:15:08;;;;;;;4.40;2.25;;;19.40;99.90;;;;;;5074444;28;20317;-66
2022/06/26 01:17:35;;;;;;;4.82;2.20;;;19.40;99.90;;;;;;5074620;28;20589;-66
2022/06/26 01:20:06;;;;;;;3.78;2.25;;;19.30;99.90;;;;;;5074943;28;20240;-65
2022/06/26 01:22:34;;;;;;;6.45;2.00;;;19.20;99.90;;;;;;5074756;28;20300;-66
2022/06/26 01:25:01;;;;;;;3.53;2.20;;;19.30;99.90;;;;;;5074362;28;20243;-65
2022/06/26 01:27:28;;;;;;;3.35;2.78;;;19.30;99.90;;;;;;5074442;28;20215;-66
2022/06/26 01:29:55;;;;;;;5.50;2.55;;;19.40;99.90;;;;;;5074573;28;20213;-65
2022/06/26 01:32:22;;;;;;;4.35;2.80;;;19.50;99.90;;;;;;5074281;28;20664;-65
2022/06/26 01:34:48;;;;;;;7.10;2.70;;;19.50;99.90;;;;;;5074356;28;20224;-66
2022/06/26 01:37:15;;;;;;;4.50;2.47;;;19.60;99.90;;;;;;5074194;28;20216;-65
2022/06/26 01:39:43;;;;;;;5.13;2.60;;;19.50;99.90;;;;;;5074126;28;20205;-65
2022/06/26 01:42:09;;;;;;;3.33;2.17;;;19.50;99.90;;;;;;5074013;28;20209;-66
2022/06/26 01:44:36;;;;;;;5.32;2.53;;;19.50;99.90;;;;;;5074072;28;20221;-66
2022/06/26 01:47:03;;;;;;;2.92;1.77;;;19.50;99.90;;;;;;5073945;28;20201;-66
2022/06/26 01:49:31;;;;;;;2.85;2.00;;;19.50;99.90;;;;;;5074144;28;20212;-65
2022/06/26 01:51:57;;;;;;;2.55;2.10;;;19.50;99.90;;;;;;5074067;28;20622;-66
2022/06/26 01:54:24;;;;;;;5.43;2.13;;;19.60;99.90;;;;;;5073814;28;20214;-67
2022/06/26 01:56:52;;;;;;;2.47;1.75;;;19.60;99.90;;;;;;5073648;28;20219;-66
2022/06/26 01:59:19;;;;;;;3.72;2.38;;;19.60;99.90;;;;;;5074070;28;20201;-66
2022/06/26 02:01:45;;;;;;;3.50;2.00;;;19.70;99.90;;;;;;5074077;28;20208;-66
2022/06/26 02:04:16;;;;;;;2.13;1.92;;;19.70;99.90;;;;;;5073887;28;20223;-66
2022/06/26 02:06:42;;;;;;;3.60;2.65;;;19.80;99.90;;;;;;5073631;28;20229;-66
2022/06/26 02:13:35;;;;;;;5.82;2.33;;;19.80;99.90;;;;;;5073850;28;20673;-66
2022/06/26 02:14:38;;;;;;;2.75;2.10;;;20.00;99.90;;;;;;5050131;28;20251;-66
2022/06/26 02:17:05;;;;;;;3.08;2.10;;;20.10;99.90;;;;;;5073320;28;20216;-66
2022/06/26 02:19:31;;;;;;;2.78;2.00;;;20.20;99.90;;;;;;5073787;28;20270;-66
2022/06/26 02:21:58;;;;;;;3.47;2.08;;;20.20;99.90;;;;;;5073391;28;20286;-66
2022/06/26 02:24:25;;;;;;;4.10;2.10;;;20.30;99.90;;;;;;5073587;28;20228;-65
2022/06/26 02:26:51;;;;;;;4.25;2.10;;;20.30;99.90;;;;;;5073234;28;20204;-66
2022/06/26 02:29:19;;;;;;;3.90;2.10;;;20.40;99.90;;;;;;5073317;28;20208;-66
2022/06/26 02:31:46;;;;;;;2.17;1.73;;;20.40;99.90;;;;;;5073114;28;20282;-65
2022/06/26 02:34:13;;;;;;;3.65;2.25;;;20.50;99.90;;;;;;5073060;28;20204;-66
2022/06/26 02:36:39;;;;;;;3.58;2.13;;;20.50;99.90;;;;;;5072939;28;20229;-66
2022/06/26 02:39:06;;;;;;;4.57;2.10;;;20.50;99.90;;;;;;5073193;28;20444;-65
2022/06/26 02:41:33;;;;;;;7.03;2.22;;;20.50;99.90;;;;;;5073039;28;20279;-66
2022/06/26 02:43:59;;;;;;;3.05;2.00;;;20.50;99.90;;;;;;5072857;28;20258;-66
2022/06/26 02:46:27;;;;;;;4.30;2.38;;;20.50;99.90;;;;;;5072561;28;20225;-66
2022/06/26 02:48:54;;;;;;;3.03;2.30;;;20.40;99.90;;;;;;5072696;28;20262;-66
2022/06/26 02:51:21;;;;;;;2.55;2.00;;;20.40;99.90;;;;;;5072972;28;20267;-66
2022/06/26 02:53:47;;;;;;;2.58;1.88;;;20.40;99.90;;;;;;5073003;28;20209;-66
2022/06/26 02:56:14;;;;;;;5.15;2.38;;;20.40;99.90;;;;;;5072441;28;20610;-65
2022/06/26 02:58:41;;;;;;;4.95;2.10;;;20.40;99.90;;;;;;5072620;28;20208;-65
2022/06/26 03:01:07;;;;;;;2.83;1.98;;;20.40;99.90;;;;;;5072819;28;20258;-65
2022/06/26 03:03:35;;;;;;;4.57;2.28;;;20.40;99.90;;;;;;5072460;28;20577;-66
2022/06/26 03:06:02;;;;;;;2.55;1.90;;;20.40;99.90;;;;;;5072504;28;20236;-65
2022/06/26 03:08:29;;;;;;;4.85;2.20;;;20.40;99.90;;;;;;5072404;28;20201;-67
2022/06/26 03:10:55;;;;;;;3.42;1.90;;;20.50;99.90;;;;;;5072512;28;20273;-65
2022/06/26 03:13:22;;;;;;;3.00;1.95;;;20.50;99.90;;;;;;5072321;28;20209;-66
2022/06/26 03:15:49;;;;;;;3.20;2.10;;;20.50;99.90;;;;;;5072115;28;20233;-66
2022/06/26 03:18:15;;;;;;;2.20;2.00;;;20.40;99.90;;;;;;5072191;28;20582;-66
2022/06/26 03:20:43;;;;;;;3.92;2.10;;;20.40;99.90;;;;;;5072483;28;20209;-66
2022/06/26 03:23:10;;;;;;;2.67;2.15;;;20.40;99.90;;;;;;5072441;28;20251;-66
2022/06/26 03:25:37;;;;;;;5.88;2.70;;;20.40;99.90;;;;;;5071945;28;20706;-66
2022/06/26 03:28:04;;;;;;;5.32;2.60;;;20.40;99.90;;;;;;5072084;28;20258;-66
2022/06/26 03:30:31;;;;;;;4.50;2.58;;;20.40;99.90;;;;;;5072004;28;20250;-65
2022/06/26 03:32:57;;;;;;;2.60;2.15;;;20.40;99.90;;;;;;5071968;28;20209;-66
2022/06/26 03:35:24;;;;;;;4.20;2.20;;;20.40;99.90;;;;;;5071981;28;20220;-65
2022/06/26 03:37:52;;;;;;;2.92;1.95;;;20.40;99.90;;;;;;5071801;28;20208;-66
2022/06/26 03:40:19;;;;;;;3.20;2.35;;;20.50;99.90;;;;;;5072067;28;20236;-65
2022/06/26 03:42:47;;;;;;;4.18;2.30;;;20.50;99.90;;;;;;5071744;28;20665;-66
2022/06/26 03:45:14;;;;;;;3.13;2.03;;;20.50;99.90;;;;;;5071961;28;20233;-66
2022/06/26 03:47:41;;;;;;;4.43;2.20;;;20.60;99.90;;;;;;5071792;28;20209;-66
2022/06/26 03:50:09;;;;;;;2.35;2.03;;;20.60;99.90;;;;;;5072060;28;20208;-66
2022/06/26 03:52:36;;;;;;;2.38;2.08;;;20.60;99.90;;;;;;5071956;28;20205;-66
2022/06/26 03:55:05;;;;;;;2.80;2.00;;;20.60;99.90;;;;;;5071752;28;20221;-66
2022/06/26 03:57:32;;;;;;;2.45;1.90;;;20.70;99.90;;;;;;5071825;28;20200;-65
2022/06/26 03:59:59;;;;;;;2.67;1.80;;;20.80;99.90;;;;;;5071929;28;20299;-65
2022/06/26 04:02:25;;;;;;;4.10;2.38;;;20.90;99.90;;;;;;5071901;28;20205;-65
2022/06/26 04:04:52;;;;;;;2.70;2.28;;;20.90;99.90;;;;;;5071650;28;20241;-66
2022/06/26 04:07:20;;;;;;;3.28;2.15;;;21.00;99.90;;;;;;5071480;28;20209;-66
2022/06/26 04:09:46;;;;;;;3.45;2.10;;;21.00;99.90;;;;;;5071656;28;20695;-66
2022/06/26 04:12:14;;;;;;;2.85;1.80;;;21.10;99.90;;;;;;5071756;28;20229;-66
2022/06/26 04:14:42;;;;;;;2.28;1.75;;;21.20;99.90;;;;;;5071646;28;21004;-66
2022/06/26 04:17:09;;;;;;;3.45;1.73;;;21.20;99.90;;;;;;5071513;28;20205;-66
2022/06/26 04:19:35;;;;;;;4.60;1.67;;;21.20;99.90;;;;;;5071761;28;20287;-66
2022/06/26 04:22:02;;;;;;;3.30;1.70;;;21.40;99.90;;;;;;5071515;28;20584;-66
2022/06/26 04:24:29;;;;;;;2.20;1.60;;;21.40;99.90;;;;;;5071455;28;20209;-66
2022/06/26 04:26:56;;;;;;;1.98;1.50;;;21.50;99.90;;;;;;5071287;28;20212;-65
2022/06/26 04:29:24;;;;;;;6.78;2.50;;;21.60;99.90;;;;;;5071958;28;20210;-65
2022/06/26 04:31:51;;;;;;;3.42;2.25;;;21.60;99.90;;;;;;5071744;28;20213;-65
2022/06/26 04:34:19;;;;;;;2.40;1.73;;;21.70;99.90;;;;;;5071710;28;20243;-66
2022/06/26 04:36:45;;;;;;;4.18;1.95;;;21.70;99.90;;;;;;5071240;28;20220;-66
2022/06/26 04:39:12;;;;;;;3.42;1.52;;;21.70;99.90;;;;;;5071519;28;20216;-65
2022/06/26 04:41:39;;;;;;;1.85;1.60;;;21.70;99.90;;;;;;5071351;28;20237;-65
2022/06/26 04:44:08;;;;;;;1.30;1.20;;;21.70;99.90;;;;;;5071326;28;20653;-66
2022/06/26 04:46:37;;;;;;;2.22;1.50;;;21.70;99.90;;;;;;5075116;28;20324;-66
2022/06/26 04:49:04;;;;;;;2.80;1.60;;;21.80;99.90;;;;;;5075239;28;20669;-66
2022/06/26 04:51:31;;;;;;;1.98;1.27;;;21.80;99.90;;;;;;5075453;28;20209;-66
2022/06/26 04:53:58;;;;;;;4.57;1.50;;;21.90;99.90;;;;;;5075161;28;20243;-66
2022/06/26 04:56:24;;;;;;;1.95;1.55;;;22.00;99.90;;;;;;5075278;28;20232;-66
2022/06/26 04:58:53;;;;;;;2.00;1.80;;;22.10;99.90;;;;;;5075312;28;20209;-66
2022/06/26 05:01:20;;;;;;;3.15;1.70;;;22.00;99.90;;;;;;5075173;28;20216;-66
2022/06/26 05:03:49;;;;;;;3.03;1.98;;;22.00;99.90;;;;;;5075092;28;20214;-66
2022/06/26 05:06:15;;;;;;;3.30;1.98;;;22.20;99.90;;;;;;5074871;28;20232;-66
2022/06/26 05:08:42;;;;;;;1.80;1.70;;;22.30;99.90;;;;;;5077270;28;20205;-66
2022/06/26 05:11:09;;;;;;;2.95;1.45;;;22.30;99.90;;;;;;5074902;28;20213;-66
2022/06/26 05:13:36;;;;;;;2.03;1.83;;;22.40;99.90;;;;;;5074873;28;20757;-66
2022/06/26 05:16:02;;;;;;;3.47;1.75;;;22.30;99.90;;;;;;5074887;28;20731;-66
2022/06/26 05:18:29;;;;;;;2.13;1.60;;;22.40;99.90;;;;;;5075167;28;20217;-66
2022/06/26 05:20:57;;;;;;;2.45;1.60;;;22.50;99.90;;;;;;5074987;28;20250;-66
2022/06/26 05:23:25;;;;;;;3.22;1.48;;;22.60;99.90;;;;;;5075067;28;20215;-67
2022/06/26 05:25:53;;;;;;;1.77;1.33;;;22.70;99.90;;;;;;5074528;28;20722;-67
2022/06/26 05:28:20;;;;;;;2.47;1.50;;;22.70;99.90;;;;;;5074583;28;20204;-65
2022/06/26 05:30:46;;;;;;;2.60;2.00;;;22.60;99.90;;;;;;5074687;28;20215;-66
2022/06/26 05:33:13;;;;;;;1.88;1.50;;;22.60;99.90;;;;;;5074621;28;20265;-65
2022/06/26 05:35:40;;;;;;;2.45;1.60;;;22.70;99.90;;;;;;5074353;28;20704;-66
2022/06/26 05:38:08;;;;;;;3.75;1.80;;;22.90;99.90;;;;;;5074284;28;20213;-66
2022/06/26 05:40:35;;;;;;;4.65;1.65;;;22.90;99.90;;;;;;5074442;28;20212;-66
2022/06/26 05:43:02;;;;;;;3.63;1.95;;;23.10;99.90;;;;;;5074466;28;20209;-67
2022/06/26 05:45:29;;;;;;;2.13;1.52;;;23.10;99.90;;;;;;5074068;28;20274;-66
2022/06/26 05:47:55;;;;;;;1.88;1.50;;;23.20;99.90;;;;;;5073919;28;20278;-66
2022/06/26 05:50:23;;;;;;;1.42;1.33;;;23.30;99.90;;;;;;5074335;28;20212;-66
2022/06/26 05:52:49;;;;;;;3.40;1.30;;;23.40;99.90;;;;;;5074216;28;20663;-66
2022/06/26 05:55:18;;;;;;;3.10;1.55;;;23.50;99.90;;;;;;5073916;28;20256;-66
2022/06/26 05:57:45;;;;;;;3.40;2.53;;;23.60;99.90;;;;;;5073179;28;20542;-66
2022/06/26 06:00:13;;;;;;;4.30;2.47;;;23.80;99.90;;;;;;5073852;28;20205;-66
2022/06/26 06:02:40;;;;;;;2.03;1.30;;;23.90;99.90;;;;;;5074414;28;20215;-66
2022/06/26 06:05:07;;;;;;;4.82;2.10;;;24.10;99.90;;;;;;5073660;28;20729;-65
2022/06/26 06:07:35;;;;;;;2.03;1.17;;;24.30;99.90;;;;;;5073832;28;20224;-68
2022/06/26 06:10:02;;;;;;;1.33;1.10;;;24.50;99.90;;;;;;5073756;28;20205;-66
2022/06/26 06:12:30;;;;;;;2.30;1.55;;;24.70;99.90;;;;;;5073944;28;20211;-66
2022/06/26 06:14:57;;;;;;;6.00;2.10;;;24.90;99.90;;;;;;5073474;28;20242;-66
2022/06/26 06:17:40;;;;;;;6.55;4.38;;;25.10;99.90;;;;;;5073386;28;20723;-66
2022/06/26 06:20:09;;;;;;;3.17;1.80;;;25.40;99.90;;;;;;5073516;28;20250;-65
2022/06/26 06:22:36;;;;;;;2.28;1.90;;;25.60;99.90;;;;;;5073711;28;20296;-66
2022/06/26 06:25:03;;;;;;;2.38;1.67;;;25.80;99.90;;;;;;5073346;28;20225;-66
2022/06/26 06:27:31;;;;;;;1.70;1.30;;;25.90;99.90;;;;;;5073140;28;20212;-66
2022/06/26 06:29:58;;;;;;;1.63;1.42;;;25.80;99.90;;;;;;5073579;28;20205;-65
2022/06/26 06:32:25;;;;;;;7.05;1.42;;;25.50;99.90;;;;;;5073417;28;20262;-65
2022/06/26 06:34:51;;;;;;;3.58;2.38;;;25.50;99.90;;;;;;5073179;28;20723;-66
2022/06/26 06:37:18;;;;;;;4.00;1.73;;;25.50;99.90;;;;;;5073041;28;20231;-66
2022/06/26 06:39:46;;;;;;;1.52;0.98;;;25.30;99.90;;;;;;5073064;28;20700;-66
2022/06/26 06:42:13;;;;;;;2.63;0.85;;;24.90;99.90;;;;;;5073116;28;20266;-66
2022/06/26 06:44:41;;;;;;;0.82;0.80;;;24.70;99.90;;;;;;5073281;28;20559;-66
2022/06/26 06:47:08;;;;;;;2.55;1.15;;;24.70;99.90;;;;;;5072716;28;20236;-66
2022/06/26 06:49:35;;;;;;;2.42;1.02;;;24.80;99.90;;;;;;5073115;28;20212;-66
2022/06/26 06:52:02;;;;;;;2.25;1.25;;;24.90;99.90;;;;;;5073116;28;20399;-66
2022/06/26 06:54:29;;;;;;;2.22;0.82;;;25.30;99.90;;;;;;5072859;28;20213;-66
2022/06/26 06:56:56;;;;;;;1.40;1.30;;;25.80;99.90;;;;;;5072718;28;20233;-66
2022/06/26 06:59:23;;;;;;;1.83;1.30;;;26.20;99.90;;;;;;5073038;28;20208;-64
2022/06/26 07:01:51;;;;;;;1.00;0.70;;;26.20;99.90;;;;;;5072913;28;20205;-63
2022/06/26 07:04:18;;;;;;;0.98;0.85;;;26.10;99.90;;;;;;5072690;28;20231;-61
2022/06/26 07:06:45;;;;;;;2.58;1.10;;;27.30;99.90;;;;;;5072238;28;20233;-63
2022/06/26 07:09:12;;;;;;;1.33;0.88;;;29.90;97.20;;;;;;5071668;28;20208;-66
2022/06/26 07:11:39;;;;;;;0.57;0.57;;;31.10;92.80;;;;;;5072668;28;20211;-64
2022/06/26 07:14:05;;;;;;;1.63;0.88;;;32.20;90.20;;;;;;5072233;28;20677;-65
2022/06/26 07:16:32;;;;;;;1.73;1.48;;;34.10;79.00;;;;;;5072459;28;20708;-62
2022/06/26 07:19:00;;;;;;;2.28;0.98;;;34.40;74.90;;;;;;5072327;28;20292;-62
2022/06/26 07:21:27;;;;;;;1.05;0.80;;;34.70;74.00;;;;;;5073198;28;20274;-62
2022/06/26 07:23:57;;;;;;;1.40;0.90;;;36.50;69.40;;;;;;5074917;28;20205;-62
2022/06/26 07:26:24;;;;;;;1.35;0.80;;;37.40;64.20;;;;;;5074453;28;20233;-61
2022/06/26 07:28:50;;;;;;;0.85;0.85;;;38.70;59.40;;;;;;5074571;28;20205;-61
2022/06/26 07:31:17;;;;;;;1.05;0.90;;;40.30;55.80;;;;;;5074914;28;20683;-62
2022/06/26 07:36:29;;;;;;;2.33;1.05;;;40.80;50.90;;;;;;5072569;28;20223;-61
2022/06/26 07:38:56;;;;;;;1.15;0.70;;;41.20;50.80;;;;;;5072648;28;20216;-63
2022/06/26 07:41:23;;;;;;;0.85;0.60;;;41.60;48.30;;;;;;5072389;28;20207;-62
2022/06/26 07:43:49;;;;;;;1.15;0.55;;;42.10;47.50;;;;;;5072952;28;20214;-62
2022/06/26 07:46:16;;;;;;;2.03;0.90;;;42.20;46.50;;;;;;5071882;28;20323;-61
2022/06/26 07:48:43;;;;;;;1.08;0.52;;;41.40;47.60;;;;;;5071684;28;20215;-62
2022/06/26 07:51:10;;;;;;;1.55;0.50;;;41.50;46.40;;;;;;5071872;28;20220;-62
2022/06/26 07:53:38;;;;;;;1.20;0.43;;;40.30;48.50;;;;;;5072163;28;20208;-62
2022/06/26 07:56:05;;;;;;;1.15;0.70;;;40.80;47.40;;;;;;5072007;28;20250;-62
2022/06/26 07:58:32;;;;;;;1.17;0.70;;;40.00;47.90;;;;;;5071668;28;20261;-62
2022/06/26 08:00:58;;;;;;;0.63;0.40;;;39.90;48.50;;;;;;5071936;28;20226;-62
2022/06/26 08:03:25;;;;;;;0.80;0.60;;;38.70;49.10;;;;;;5071833;28;20254;-62
2022/06/26 08:05:52;;;;;;;0.60;0.50;;;38.30;50.80;;;;;;5071955;28;20315;-63
2022/06/26 08:08:19;;;;;;;1.48;0.75;;;39.50;49.40;;;;;;5071855;28;20204;-62
2022/06/26 08:10:47;;;;;;;1.42;0.82;;;39.80;48.60;;;;;;5072221;28;20204;-62
2022/06/26 08:13:14;;;;;;;1.10;0.70;;;39.80;48.90;;;;;;5072044;28;20684;-62
2022/06/26 08:15:40;;;;;;;0.50;0.50;;;40.30;47.70;;;;;;5071595;28;20244;-62
2022/06/26 08:18:08;;;;;;;1.13;0.70;;;38.70;49.80;;;;;;5071783;28;20212;-62
2022/06/26 08:20:36;;;;;;;2.70;0.95;;;37.10;52.30;;;;;;5074567;28;20292;-62
2022/06/26 08:23:03;;;;;;;1.50;0.88;;;36.20;53.80;;;;;;5075943;28;20281;-63
2022/06/26 08:25:29;;;;;;;2.20;0.75;;;35.80;54.50;;;;;;5075579;28;20613;-63
2022/06/26 08:27:59;;;;;;;1.25;0.60;;;36.50;53.70;;;;;;5075779;28;20228;-63
2022/06/26 08:30:26;;;;;;;1.40;0.65;;;38.10;51.50;;;;;;5075792;28;20215;-65
2022/06/26 08:32:56;;;;;;;1.33;0.70;;;38.20;50.70;;;;;;5076141;28;20205;-63
2022/06/26 08:35:23;;;;;;;1.92;0.55;;;38.50;50.00;;;;;;5075474;28;20807;-62
2022/06/26 08:37:50;;;;;;;2.30;0.63;;;38.50;50.20;;;;;;5075516;28;20207;-64
2022/06/26 08:40:17;;;;;;;0.35;0.35;;;37.60;50.80;;;;;;5075705;28;20208;-62
2022/06/26 08:42:47;;;;;;;0.38;0.38;;;37.10;51.10;;;;;;5075626;28;20315;-62
2022/06/26 08:45:18;;;;;;;0.82;0.80;;;37.00;51.60;;;;;;5075491;28;20224;-62
2022/06/26 08:47:50;;;;;;;0.65;0.57;;;36.80;51.80;;;;;;5075635;28;20236;-62
2022/06/26 08:50:20;;;;;;;0.88;0.40;;;36.00;52.90;;;;;;5075518;28;20236;-65
2022/06/26 08:52:47;;;;;;;1.55;0.50;;;36.00;53.70;;;;;;5075291;28;20209;-63
2022/06/26 08:55:14;;;;;;;0.50;0.50;;;35.50;54.10;;;;;;5075073;28;20316;-63
2022/06/26 08:57:41;;;;;;;0.60;0.60;;;34.40;56.50;;;;;;5075184;28;20197;-63
2022/06/26 09:00:09;;;;;;;1.60;0.70;;;32.80;58.70;;;;;;5075414;28;20262;-63
2022/06/26 09:02:37;;;;;;;1.10;0.70;;;31.10;62.90;;;;;;5074983;28;20549;-63
2022/06/26 09:05:04;;;;;;;2.28;0.88;;;30.00;65.30;;;;;;5075153;28;20228;-63
2022/06/26 09:07:31;;;;;;;1.17;0.90;;;29.50;67.30;;;;;;5074806;28;20452;-63
2022/06/26 09:09:58;;;;;;;1.23;0.80;;;28.90;69.90;;;;;;5076709;28;20204;-63
2022/06/26 09:12:36;;;;;;;1.60;1.30;;;28.10;72.90;;;;;;5075304;28;20216;-63
2022/06/26 09:15:04;;;;;;;0.98;0.80;;;27.40;76.30;;;;;;5076236;28;20320;-63
2022/06/26 09:17:31;;;;;;;0.98;0.80;;;27.30;78.20;;;;;;5076018;28;20201;-63
2022/06/26 09:19:59;;;;;;;0.80;0.80;;;27.40;79.00;;;;;;5076405;28;20208;-63
2022/06/26 09:22:27;;;;;;;1.27;0.95;;;27.50;79.60;;;;;;5074822;28;20200;-64
2022/06/26 09:24:55;;;;;;;1.60;1.50;;;27.60;79.90;;;;;;5074644;28;20791;-63
2022/06/26 09:27:22;;;;;;;2.17;1.05;;;27.70;80.20;;;;;;5074889;28;20224;-62
2022/06/26 09:29:50;;;;;;;1.33;1.10;;;27.50;81.10;;;;;;5074696;28;20212;-62
2022/06/26 09:32:18;;;;;;;1.52;1.00;;;27.50;82.20;;;;;;5073541;28;20219;-63
2022/06/26 09:34:47;;;;;;;1.95;0.77;;;27.50;82.30;;;;;;5074598;28;20605;-62
2022/06/26 09:37:16;;;;;;;1.00;0.80;;;27.50;82.20;;;;;;5074181;28;20205;-62
2022/06/26 09:39:43;;;;;;;0.75;0.73;;;27.50;82.90;;;;;;5074547;28;20201;-62
2022/06/26 09:42:21;;;;;;;0.75;0.70;;;27.50;83.80;;;;;;5074736;28;20262;-62
2022/06/26 09:44:51;;;;;;;1.10;0.77;;;27.30;83.60;;;;;;5074235;28;20709;-62
2022/06/26 09:47:25;;;;;;;1.55;0.90;;;27.10;86.00;;;;;;5073961;28;20228;-63
2022/06/26 09:49:53;;;;;;;1.38;0.68;;;26.60;89.60;;;;;;5074541;28;20215;-63
2022/06/26 09:52:23;;;;;;;0.88;0.60;;;26.20;90.80;;;;;;5074709;28;20218;-63
2022/06/26 09:54:52;;;;;;;0.95;0.73;;;26.10;91.40;;;;;;5074187;28;20232;-63
2022/06/26 09:57:19;;;;;;;0.68;0.60;;;26.20;91.50;;;;;;5073998;28;20208;-63
2022/06/26 09:59:45;;;;;;;1.20;1.00;;;26.40;91.80;;;;;;5074203;28;20263;-63
2022/06/26 10:07:49;;;;;;;1.75;0.70;;;27.00;90.80;;;;;;5076728;28;20226;-63
2022/06/26 10:10:20;;;;;;;1.05;0.90;;;26.80;91.30;;;;;;5073933;28;20201;-62
2022/06/26 10:12:48;;;;;;;0.90;0.73;;;26.90;91.30;;;;;;5074453;28;20586;-62
2022/06/26 10:15:17;;;;;;;3.97;0.88;;;27.00;91.00;;;;;;5073959;28;20256;-62
2022/06/26 10:18:17;;;;;;;0.95;0.82;;;27.10;91.10;;;;;;5073700;28;20227;-63
2022/06/26 10:20:44;;;;;;;1.30;0.90;;;27.20;91.20;;;;;;5073759;28;20205;-63
2022/06/26 10:23:13;;;;;;;1.90;0.90;;;27.50;90.70;;;;;;5073465;28;20217;-63
2022/06/26 10:25:45;;;;;;;1.63;0.68;;;27.50;90.10;;;;;;5073781;28;20645;-63
2022/06/26 10:28:19;;;;;;;0.80;0.73;;;27.50;90.00;;;;;;5073613;28;20220;-63
2022/06/26 10:30:45;;;;;;;1.75;0.88;;;27.30;90.70;;;;;;5074462;28;20292;-62
2022/06/26 10:33:16;;;;;;;1.48;0.95;;;27.20;91.10;;;;;;5073392;28;20380;-63
2022/06/26 10:35:46;;;;;;;1.58;1.00;;;27.10;91.40;;;;;;5073511;28;20235;-63
2022/06/26 10:38:22;;;;;;;0.98;0.93;;;27.10;91.10;;;;;;5073261;28;20213;-62
2022/06/26 10:43:50;;;;;;;1.77;1.10;;;27.30;90.90;;;;;;5072792;28;20204;-63
2022/06/26 10:46:21;;;;;;;1.88;1.10;;;27.70;90.80;;;;;;5072802;28;20781;-64
2022/06/26 10:48:54;;;;;;;0.75;0.60;;;27.80;90.40;;;;;;5072797;28;20208;-63
2022/06/26 10:51:25;;;;;;;3.20;1.00;;;27.80;89.70;;;;;;5073010;28;20532;-63
2022/06/26 10:53:54;;;;;;;1.40;0.60;;;27.90;90.10;;;;;;5073259;28;20209;-63
2022/06/26 10:56:22;;;;;;;1.27;0.85;;;27.90;90.20;;;;;;5072831;28;20229;-64
2022/06/26 10:58:49;;;;;;;1.88;0.80;;;28.00;90.00;;;;;;5072813;28;20244;-63
2022/06/26 11:01:17;;;;;;;3.13;1.00;;;28.00;89.50;;;;;;5072912;28;20240;-64
2022/06/26 11:03:45;;;;;;;0.80;0.55;;;28.10;88.80;;;;;;5072755;28;20296;-64
2022/06/26 11:06:14;;;;;;;0.70;0.70;;;28.30;88.20;;;;;;5072509;28;20271;-64
2022/06/26 11:08:45;;;;;;;1.30;0.90;;;28.50;87.20;;;;;;5072197;28;20604;-63
2022/06/26 11:11:17;;;;;;;3.58;1.10;;;28.70;87.00;;;;;;5072698;28;20242;-65
2022/06/26 11:13:51;;;;;;;0.65;0.65;;;28.80;86.10;;;;;;5072908;28;20208;-65
2022/06/26 11:16:18;;;;;;;1.90;1.20;;;28.90;87.30;;;;;;5072806;28;20228;-65
2022/06/26 11:18:45;;;;;;;1.15;0.93;;;28.90;85.20;;;;;;5072573;28;20205;-64
2022/06/26 11:21:12;;;;;;;0.75;0.75;;;28.70;84.60;;;;;;5072342;28;20212;-64
2022/06/26 11:23:40;;;;;;;0.85;0.60;;;28.60;84.00;;;;;;5072555;28;20282;-64
2022/06/26 11:26:08;;;;;;;0.68;0.57;;;28.70;83.10;;;;;;5072628;28;20231;-65
2022/06/26 11:28:38;;;;;;;1.73;0.90;;;28.80;84.50;;;;;;5072208;28;20760;-65
2022/06/26 11:31:07;;;;;;;1.60;0.90;;;29.00;84.70;;;;;;5072314;28;20211;-64
2022/06/26 11:33:36;;;;;;;0.80;0.70;;;29.20;83.90;;;;;;5072231;28;20299;-65
2022/06/26 11:36:05;;;;;;;0.93;0.80;;;29.30;83.60;;;;;;5072014;28;20278;-66
2022/06/26 11:38:33;;;;;;;1.60;0.80;;;29.50;83.80;;;;;;5052027;28;20201;-64
2022/06/26 11:41:00;;;;;;;0.90;0.70;;;29.80;82.40;;;;;;5051723;28;20616;-64
2022/06/26 11:43:27;;;;;;;2.03;1.83;;;29.90;83.30;;;;;;5051676;28;20210;-64
2022/06/26 11:45:57;;;;;;;0.85;0.80;;;30.20;82.20;;;;;;5050909;28;20716;-65
2022/06/26 11:48:24;;;;;;;0.68;0.65;;;30.60;81.30;;;;;;5051343;28;20222;-69
2022/06/26 11:50:53;;;;;;;0.95;0.45;;;30.90;79.60;;;;;;5051550;28;20244;-64
2022/06/26 11:53:22;;;;;;;1.40;0.88;;;30.90;77.40;;;;;;5053446;28;20232;-71
2022/06/26 11:55:50;;;;;;;1.33;0.90;;;31.00;76.40;;;;;;5052486;28;20229;-65
2022/06/26 11:58:18;;;;;;;1.10;1.00;;;31.20;75.90;;;;;;5057762;28;20197;-66
2022/06/26 12:00:46;;;;;;;1.90;0.70;;;31.50;75.50;;;;;;5054662;28;20205;-66
2022/06/26 12:03:15;;;;;;;0.75;0.60;;;31.80;75.10;;;;;;5053232;28;20201;-66
2022/06/26 12:05:45;;;;;;;1.10;1.00;;;31.80;75.10;;;;;;5052008;28;20229;-63
2022/06/26 12:08:16;;;;;;;2.15;1.00;;;32.10;75.00;;;;;;5052328;28;20293;-63
2022/06/26 12:10:46;;;;;;;1.80;0.80;;;32.20;74.20;;;;;;5052122;28;20241;-62
2022/06/26 12:13:22;;;;;;;0.60;0.60;;;31.90;74.20;;;;;;5052363;28;20668;-62
2022/06/26 12:15:49;;;;;;;0.57;0.57;;;31.80;73.90;;;;;;5051852;28;20267;-63
2022/06/26 12:18:17;;;;;;;0.63;0.60;;;31.60;74.40;;;;;;5051871;28;20201;-63
2022/06/26 12:20:44;;;;;;;1.50;0.75;;;31.70;74.40;;;;;;5053491;28;20267;-63
2022/06/26 12:23:11;;;;;;;1.23;0.73;;;31.70;74.40;;;;;;5054390;28;20212;-64
2022/06/26 12:25:40;;;;;;;1.38;0.70;;;31.30;74.50;;;;;;5055633;28;20229;-63
2022/06/26 12:28:07;;;;;;;3.90;0.82;;;30.90;74.90;;;;;;5054986;28;20222;-62
2022/06/26 12:30:35;;;;;;;0.98;0.75;;;30.60;75.90;;;;;;5055261;28;20213;-62
2022/06/26 12:33:05;;;;;;;0.80;0.80;;;30.30;77.80;;;;;;5056503;28;20312;-63
2022/06/26 12:35:35;;;;;;;1.30;0.70;;;30.10;78.10;;;;;;5058330;28;20233;-63
2022/06/26 12:38:03;;;;;;;1.25;0.88;;;30.00;78.30;;;;;;5057498;28;20209;-63
2022/06/26 12:40:34;;;;;;;0.98;0.57;;;30.10;77.90;;;;;;5057986;28;20205;-63
2022/06/26 12:43:01;;;;;;;1.13;0.68;;;30.20;78.40;;;;;;5058521;28;20638;-62
2022/06/26 12:45:28;;;;;;;2.53;1.00;;;30.10;78.40;;;;;;5054973;28;20591;-62
2022/06/26 12:47:54;;;;;;;0.60;0.60;;;29.90;79.10;;;;;;5050392;28;20232;-65
2022/06/26 12:50:21;;;;;;;0.85;0.60;;;29.80;80.20;;;;;;5050715;28;20289;-64
2022/06/26 12:52:49;;;;;;;1.00;0.80;;;29.90;78.90;;;;;;5050871;28;20413;-65
2022/06/26 12:55:16;;;;;;;0.85;0.70;;;29.90;78.80;;;;;;5052204;28;20237;-64
2022/06/26 12:57:43;;;;;;;1.02;0.70;;;29.80;78.20;;;;;;5046638;28;20214;-65
2022/06/26 13:00:10;;;;;;;0.90;0.85;;;29.80;79.70;;;;;;5052899;28;20206;-65
2022/06/26 13:02:37;;;;;;;0.60;0.60;;;29.90;79.30;;;;;;5048948;28;20202;-65